createdAt,value
2024-03-02T00:05:04.788Z,-7.93
2024-03-02T00:10:14.280Z,-7.69
2024-03-02T00:15:50.336Z,-7.55
2024-03-02T00:20:58.896Z,-7.42
2024-03-02T00:26:03.865Z,-7.71
2024-03-02T00:31:15.696Z,-7.92
2024-03-02T00:36:29.237Z,-7.99
2024-03-02T00:41:33.681Z,-7.95
2024-03-02T00:46:39.440Z,-7.95
2024-03-02T00:51:43.524Z,-7.91
2024-03-02T00:56:47.252Z,-7.90
2024-03-02T01:01:51.624Z,-7.89
2024-03-02T01:06:56.863Z,-7.82
2024-03-02T01:12:00.677Z,-7.82
2024-03-02T01:17:06.409Z,-7.71
2024-03-02T01:22:10.140Z,-7.67
2024-03-02T01:27:14.216Z,-7.62
2024-03-02T01:32:17.980Z,-7.86
2024-03-02T01:37:21.870Z,-7.53
2024-03-02T01:42:25.468Z,-7.49
2024-03-02T01:47:29.498Z,-7.43
2024-03-02T01:52:33.537Z,-7.37
2024-03-02T01:57:37.397Z,-7.29
2024-03-02T02:02:41.467Z,-7.24
2024-03-02T02:07:46.108Z,-7.13
2024-03-02T02:12:49.770Z,-7.06
2024-03-02T02:17:54.644Z,-6.91
2024-03-02T02:23:19.945Z,-6.80
2024-03-02T02:28:23.749Z,-6.67
2024-03-02T02:33:27.547Z,-6.57
2024-03-02T02:38:32.091Z,-6.49
2024-03-02T02:43:35.731Z,-6.38
2024-03-02T02:48:39.791Z,-6.25
2024-03-02T02:53:43.579Z,-6.18
2024-03-02T02:58:47.153Z,-6.03
2024-03-02T03:03:51.292Z,-5.91
2024-03-02T03:08:55.257Z,-5.83
2024-03-02T03:13:58.938Z,-5.69
2024-03-02T03:19:03.054Z,-5.64
2024-03-02T03:24:06.996Z,-5.68
2024-03-02T03:29:10.807Z,-5.75
2024-03-02T03:34:17.839Z,-5.78
2024-03-02T03:39:21.531Z,-5.75
2024-03-02T03:44:26.351Z,-5.63
2024-03-02T03:49:30.327Z,-5.64
2024-03-02T03:54:34.261Z,-5.47
2024-03-02T03:59:39.324Z,-5.29
2024-03-02T04:04:43.351Z,-5.27
2024-03-02T04:09:46.978Z,-5.52
2024-03-02T04:14:51.098Z,-5.66
2024-03-02T04:19:54.875Z,-5.89
2024-03-02T04:24:58.528Z,-6.08
2024-03-02T04:30:02.359Z,-6.05
2024-03-02T04:35:11.925Z,-6.47
2024-03-02T04:40:15.824Z,-6.09
2024-03-02T04:45:19.525Z,-6.03
2024-03-02T04:50:24.184Z,-5.99
2024-03-02T04:55:30.836Z,-5.48
2024-03-02T05:00:36.169Z,-4.48
2024-03-02T05:05:40.251Z,-3.77
2024-03-02T05:10:44.069Z,-3.19
2024-03-02T05:15:48.489Z,-2.79
2024-03-02T05:20:52.298Z,-2.76
2024-03-02T05:25:55.934Z,-2.76
2024-03-02T05:30:59.782Z,-3.42
2024-03-02T05:36:04.087Z,-3.85
2024-03-02T05:41:07.986Z,-4.40
2024-03-02T05:46:12.077Z,-4.35
2024-03-02T05:51:16.420Z,-4.31
2024-03-02T05:56:20.161Z,-4.21
2024-03-02T06:01:30.110Z,-4.33
2024-03-02T06:06:35.572Z,-4.17
2024-03-02T06:11:39.929Z,-4.09
2024-03-02T06:16:44.601Z,-4.11
2024-03-02T06:21:48.466Z,-4.13
2024-03-02T06:26:52.398Z,-4.06
2024-03-02T06:31:56.059Z,-4.33
2024-03-02T06:37:00.040Z,-4.80
2024-03-02T06:42:04.066Z,-4.71
2024-03-02T06:47:07.793Z,-4.66
2024-03-02T06:52:11.666Z,-4.50
2024-03-02T06:57:15.798Z,-4.21
2024-03-02T07:02:19.534Z,-4.22
2024-03-02T07:07:23.433Z,-4.57
2024-03-02T07:12:27.112Z,-4.81
2024-03-02T07:17:31.380Z,-4.74
2024-03-02T07:22:36.269Z,-4.77
2024-03-02T07:27:41.572Z,-4.48
2024-03-02T07:32:47.603Z,-4.44
2024-03-02T07:37:51.359Z,-4.46
2024-03-02T07:42:55.428Z,-4.36
2024-03-02T07:47:59.882Z,-4.49
2024-03-02T07:53:04.019Z,-4.80
2024-03-02T07:58:08.751Z,-5.14
2024-03-02T08:03:13.173Z,-5.09
2024-03-02T08:08:16.909Z,-4.91
2024-03-02T08:13:20.865Z,-4.82
2024-03-02T08:18:24.854Z,-4.74
2024-03-02T08:23:28.561Z,-4.72
2024-03-02T08:28:32.524Z,-4.94
2024-03-02T08:33:38.714Z,-5.16
2024-03-02T08:38:43.135Z,-5.07
2024-03-02T08:43:46.846Z,-5.03
2024-03-02T08:48:50.979Z,-4.97
2024-03-02T08:53:54.925Z,-4.95
2024-03-02T08:58:58.820Z,-4.92
2024-03-02T09:04:02.801Z,-4.68
2024-03-02T09:09:06.553Z,-4.47
2024-03-02T09:14:10.452Z,-4.66
2024-03-02T09:19:14.436Z,-4.49
2024-03-02T09:24:18.739Z,-4.11
2024-03-02T09:29:22.991Z,-4.03
2024-03-02T09:34:26.794Z,-4.38
2024-03-02T09:39:30.793Z,-4.61
2024-03-02T09:44:35.802Z,-4.78
2024-03-02T09:49:40.364Z,-5.02
2024-03-02T09:54:44.546Z,-4.94
2024-03-02T09:59:48.570Z,-4.94
2024-03-02T10:04:52.390Z,-4.96
2024-03-02T10:09:56.509Z,-4.96
2024-03-02T10:15:07.426Z,-5.08
2024-03-02T10:20:26.080Z,-5.15
2024-03-02T10:25:43.139Z,-5.20
2024-03-02T10:30:55.340Z,-5.23
2024-03-02T10:35:59.188Z,-5.27
2024-03-02T10:41:05.690Z,-5.28
2024-03-02T10:46:09.867Z,-5.31
2024-03-02T10:51:13.930Z,-5.35
2024-03-02T10:56:29.727Z,-5.38
2024-03-02T11:01:34.740Z,-5.66
2024-03-02T11:06:41.738Z,-5.48
2024-03-02T11:11:47.486Z,-5.49
2024-03-02T11:16:51.492Z,-5.54
2024-03-02T11:21:56.937Z,-5.60
2024-03-02T11:27:14.853Z,-5.78
2024-03-02T11:32:22.731Z,-6.02
2024-03-02T11:37:27.393Z,-6.16
2024-03-02T11:42:31.367Z,-6.28
2024-03-02T11:47:38.792Z,-6.47
2024-03-02T11:52:46.967Z,-6.68
2024-03-02T11:57:55.348Z,-6.81
2024-03-02T12:03:07.595Z,-6.92
2024-03-02T12:08:14.210Z,-7.04
2024-03-02T12:13:17.967Z,-7.19
2024-03-02T12:18:22.049Z,-7.37
2024-03-02T12:23:26.386Z,-7.48
2024-03-02T12:28:32.318Z,-7.63
2024-03-02T12:33:36.647Z,-7.90
2024-03-02T12:38:46.251Z,-8.16
2024-03-02T12:43:50.111Z,-8.86
2024-03-02T12:48:54.164Z,-8.61
2024-03-02T12:53:59.684Z,-8.94
2024-03-02T12:59:03.649Z,-9.16
2024-03-02T13:04:07.609Z,-9.63
2024-03-02T13:09:17.312Z,-9.58
2024-03-02T13:14:26.848Z,-9.79
2024-03-02T13:19:32.880Z,-9.96
2024-03-02T13:24:37.049Z,-10.05
2024-03-02T13:29:41.009Z,-10.20
2024-03-02T13:34:46.186Z,-10.38
2024-03-02T13:39:50.008Z,-10.54
2024-03-02T13:44:55.430Z,-10.65
2024-03-02T13:49:59.638Z,-10.80
2024-03-02T13:55:04.203Z,-10.92
2024-03-02T14:00:12.251Z,-11.08
2024-03-02T14:05:17.253Z,-11.15
2024-03-02T14:10:24.301Z,-11.27
2024-03-02T14:15:28.212Z,-11.47
2024-03-02T14:20:32.118Z,-11.67
2024-03-02T14:25:35.959Z,-11.87
2024-03-02T14:30:40.149Z,-12.11
2024-03-02T14:35:44.261Z,-12.26
2024-03-02T14:40:47.998Z,-12.30
2024-03-02T14:45:54.075Z,-12.36
2024-03-02T14:50:57.964Z,-12.38
2024-03-02T14:56:02.992Z,-12.39
2024-03-02T15:01:11.151Z,-12.60
2024-03-02T15:06:15.306Z,-12.99
2024-03-02T15:11:19.187Z,-13.43
2024-03-02T15:16:23.093Z,-13.46
2024-03-02T15:21:26.979Z,-13.65
2024-03-02T15:26:30.809Z,-14.10
2024-03-02T15:31:35.598Z,-14.38
2024-03-02T15:36:39.447Z,-14.38
2024-03-02T15:41:45.772Z,-14.33
2024-03-02T15:46:49.719Z,-14.30
2024-03-02T15:51:54.196Z,-14.39
2024-03-02T15:56:58.169Z,-14.37
2024-03-02T16:02:01.952Z,-14.41
2024-03-02T16:07:06.031Z,-14.64
2024-03-02T16:12:09.988Z,-14.76
2024-03-02T16:17:13.870Z,-14.88
2024-03-02T16:22:17.540Z,-14.92
2024-03-02T16:27:21.458Z,-15.03
2024-03-02T16:32:25.323Z,-15.17
2024-03-02T16:37:29.035Z,-15.47
2024-03-02T16:42:33.743Z,-15.63
2024-03-02T16:47:37.661Z,-15.72
2024-03-02T16:52:41.726Z,-15.82
2024-03-02T16:57:45.611Z,-16.01
2024-03-02T17:02:50.001Z,-16.29
2024-03-02T17:07:54.839Z,-16.57
2024-03-02T17:13:01.582Z,-16.76
2024-03-02T17:18:05.546Z,-17.00
2024-03-02T17:23:09.544Z,-17.19
2024-03-02T17:28:29.579Z,-17.45
2024-03-02T17:33:34.551Z,-17.55
2024-03-02T17:38:38.304Z,-17.72
2024-03-02T17:43:42.968Z,-17.75
2024-03-02T17:48:46.875Z,-17.82
2024-03-02T17:53:53.322Z,-17.93
2024-03-02T17:58:57.010Z,-17.86
2024-03-02T18:04:00.898Z,-17.93
2024-03-02T18:09:05.093Z,-17.98
2024-03-02T18:14:08.780Z,-18.19
2024-03-02T18:19:13.935Z,-18.30
2024-03-02T18:24:19.276Z,-18.52
2024-03-02T18:29:23.217Z,-18.74
2024-03-02T18:34:27.245Z,-18.90
2024-03-02T18:39:31.023Z,-19.01
2024-03-02T18:44:35.711Z,-19.22
2024-03-02T18:49:46.861Z,-19.41
2024-03-02T18:54:50.649Z,-19.95
2024-03-02T18:59:54.725Z,-20.11
2024-03-02T19:04:58.573Z,-19.92
2024-03-02T19:10:04.874Z,-19.86
2024-03-02T19:15:08.987Z,-20.01
2024-03-02T19:20:13.317Z,-20.00
2024-03-02T19:25:17.989Z,-20.41
2024-03-02T19:30:22.004Z,-20.18
2024-03-02T19:35:28.268Z,-20.21
2024-03-02T19:40:32.129Z,-20.25
2024-03-02T19:45:36.074Z,-20.27
2024-03-02T19:50:41.688Z,-20.25
2024-03-02T19:55:46.656Z,-20.30
2024-03-02T20:00:50.598Z,-20.37
2024-03-02T20:05:55.033Z,-20.72
2024-03-02T20:10:58.663Z,-20.35
2024-03-02T20:16:02.600Z,-20.58
2024-03-02T20:21:06.808Z,-20.70
2024-03-02T20:26:10.566Z,-20.68
2024-03-02T20:31:17.049Z,-20.67
2024-03-02T20:36:21.467Z,-20.68
2024-03-02T20:41:26.823Z,-20.85
2024-03-02T20:46:30.522Z,-21.12
2024-03-02T20:51:34.376Z,-21.69
2024-03-02T20:56:42.942Z,-21.40
2024-03-02T21:01:50.373Z,-21.28
2024-03-02T21:06:54.341Z,-21.27
2024-03-02T21:11:58.065Z,-21.44
2024-03-02T21:17:01.831Z,-21.61
2024-03-02T21:22:07.914Z,-21.72
2024-03-02T21:27:13.102Z,-21.74
2024-03-02T21:32:16.913Z,-22.04
2024-03-02T21:37:20.625Z,-21.83
2024-03-02T21:42:24.826Z,-21.93
2024-03-02T21:47:28.499Z,-22.03
2024-03-02T21:52:32.343Z,-22.07
2024-03-02T21:57:36.913Z,-22.18
2024-03-02T22:02:40.819Z,-22.28
2024-03-02T22:07:45.926Z,-22.33
2024-03-02T22:12:50.234Z,-22.34
2024-03-02T22:17:54.766Z,-22.45
2024-03-02T22:22:59.076Z,-22.56
2024-03-02T22:28:02.901Z,-22.70
2024-03-02T22:33:07.148Z,-22.92
2024-03-02T22:38:10.805Z,-23.00
2024-03-02T22:43:15.041Z,-23.09
2024-03-02T22:48:18.825Z,-23.14
2024-03-02T22:53:23.339Z,-23.16
2024-03-02T22:58:29.028Z,-23.16
2024-03-02T23:03:32.804Z,-23.32
2024-03-02T23:08:38.249Z,-23.39
2024-03-02T23:13:41.618Z,-23.50
2024-03-02T23:18:45.621Z,-23.54
2024-03-02T23:23:51.118Z,-23.52
2024-03-02T23:28:55.143Z,-23.61
2024-03-02T23:34:01.332Z,-23.71
2024-03-02T23:39:06.287Z,-23.59
2024-03-02T23:44:10.609Z,-23.64
2024-03-02T23:49:14.667Z,-23.70
2024-03-02T23:54:18.282Z,-23.75
2024-03-02T23:59:22.222Z,-23.76
